Time;durP1;ratioP1;P1;durP2;ratioP2;P2;SDS_P1;SDS_P2;PMS_P1;PMS_P2;Temp;Humidity;BMP_temperature;BMP_pressure;BME280_temperature;BME280_humidity;BME280_pressure;Samples;Min_cycle;Max_cycle;Signal;HPM_P1;HPM_P2
2023/06/20 00:00:28;;;;;;;;;;;;;;;;;;5093411;28;19924;-60
2023/06/20 00:02:54;;;;;;;;;;;;;;;;;;5092899;28;19924;-60
2023/06/20 00:05:20;;;;;;;;;;;;;;;;;;5074769;28;19924;-60
2023/06/20 00:07:46;;;;;;;;;;;;;;;;;;5093175;28;19927;-60
2023/06/20 00:10:12;;;;;;;;;;;;;;;;;;5092584;28;19927;-60
2023/06/20 00:12:40;;;;;;;;;;;;;;;;;;5093000;28;19928;-60
2023/06/20 00:15:06;;;;;;;;;;;;;;;;;;5092940;28;19924;-60
2023/06/20 00:17:34;;;;;;;;;;;;;;;;;;5092233;28;19924;-60
2023/06/20 00:20:04;;;;;;;;;;;;;;;;;;5093007;28;19930;-60
2023/06/20 00:22:34;;;;;;;;;;;;;;;;;;5092768;28;19935;-60
2023/06/20 00:25:00;;;;;;;;;;;;;;;;;;5092180;28;20552;-60
2023/06/20 00:27:26;;;;;;;;;;;;;;;;;;5072608;28;19920;-60
2023/06/20 00:29:52;;;;;;;;;;;;;;;;;;5076687;28;20556;-60
2023/06/20 00:32:18;;;;;;;;;;;;;;;;;;5073869;28;19924;-60
2023/06/20 00:34:44;;;;;;;;;;;;;;;;;;5092454;28;19943;-60
2023/06/20 00:37:10;;;;;;;;;;;;;;;;;;5092413;28;19924;-60
2023/06/20 00:39:36;;;;;;;;;;;;;;;;;;5092203;28;19920;-60
2023/06/20 00:42:02;;;;;;;;;;;;;;;;;;5092558;28;19979;-60
2023/06/20 00:44:28;;;;;;;;;;;;;;;;;;5092482;28;19966;-60
2023/06/20 00:46:54;;;;;;;;;;;;;;;;;;5073627;28;20019;-60
2023/06/20 00:49:20;;;;;;;;;;;;;;;;;;5092453;28;19931;-60
2023/06/20 00:51:46;;;;;;;;;;;;;;;;;;5092172;28;19924;-60
2023/06/20 00:54:12;;;;;;;;;;;;;;;;;;5091461;28;19946;-60
2023/06/20 00:56:38;;;;;;;;;;;;;;;;;;5092511;28;19924;-60
2023/06/20 00:59:03;;;;;;;;;;;;;;;;;;5092345;28;19943;-60
2023/06/20 01:01:31;;;;;;;;;;;;;;;;;;5073596;28;19924;-60
2023/06/20 01:03:57;;;;;;;;;;;;;;;;;;5090876;28;19968;-60
2023/06/20 01:06:23;;;;;;;;;;;;;;;;;;5092246;28;19919;-60
2023/06/20 01:08:49;;;;;;;;;;;;;;;;;;5091702;28;19920;-60
2023/06/20 01:11:15;;;;;;;;;;;;;;;;;;5056996;28;19951;-60
2023/06/20 01:13:41;;;;;;;;;;;;;;;;;;5091899;28;19924;-60
2023/06/20 01:16:07;;;;;;;;;;;;;;;;;;5091193;28;19920;-60
2023/06/20 01:18:33;;;;;;;;;;;;;;;;;;5091881;28;19924;-60
2023/06/20 01:20:59;;;;;;;;;;;;;;;;;;5073940;28;19927;-60
2023/06/20 01:23:25;;;;;;;;;;;;;;;;;;5091301;28;19924;-60
2023/06/20 01:25:51;;;;;;;;;;;;;;;;;;5084581;28;19928;-60
2023/06/20 01:28:17;;;;;;;;;;;;;;;;;;5071277;28;19924;-60
2023/06/20 01:30:43;;;;;;;;;;;;;;;;;;5082255;28;19931;-60
2023/06/20 01:33:09;;;;;;;;;;;;;;;;;;5091332;28;19967;-60
2023/06/20 01:35:35;;;;;;;;;;;;;;;;;;5091513;28;19928;-60
2023/06/20 01:38:01;;;;;;;;;;;;;;;;;;5090919;28;19926;-60
2023/06/20 01:40:27;;;;;;;;;;;;;;;;;;5073176;28;19920;-60
2023/06/20 01:42:53;;;;;;;;;;;;;;;;;;5091330;28;20382;-60
2023/06/20 01:45:19;;;;;;;;;;;;;;;;;;5090862;28;19924;-60
2023/06/20 01:47:45;;;;;;;;;;;;;;;;;;5091287;28;19986;-60
2023/06/20 01:50:11;;;;;;;;;;;;;;;;;;5091231;28;19920;-60
2023/06/20 01:52:37;;;;;;;;;;;;;;;;;;5090685;28;19993;-60
2023/06/20 01:55:04;;;;;;;;;;;;;;;;;;5091133;28;19963;-60
2023/06/20 01:57:30;;;;;;;;;;;;;;;;;;5091154;28;19973;-60
2023/06/20 01:59:56;;;;;;;;;;;;;;;;;;5090723;28;20267;-60
2023/06/20 02:02:22;;;;;;;;;;;;;;;;;;5091077;28;19956;-60
2023/06/20 02:04:48;;;;;;;;;;;;;;;;;;5091047;28;19943;-60
2023/06/20 02:07:14;;;;;;;;;;;;;;;;;;5090507;28;19928;-60
2023/06/20 02:09:42;;;;;;;;;;;;;;;;;;5090975;28;20010;-60
2023/06/20 02:12:08;;;;;;;;;;;;;;;;;;5090928;28;19979;-60
2023/06/20 02:14:34;;;;;;;;;;;;;;;;;;5090025;28;19978;-60
2023/06/20 02:17:00;;;;;;;;;;;;;;;;;;5090876;28;19920;-60
2023/06/20 02:19:26;;;;;;;;;;;;;;;;;;5090615;28;19920;-60
2023/06/20 02:21:52;;;;;;;;;;;;;;;;;;5090357;28;19955;-60
2023/06/20 02:24:18;;;;;;;;;;;;;;;;;;5090704;28;20013;-60
2023/06/20 02:26:44;;;;;;;;;;;;;;;;;;5058046;28;19928;-60
2023/06/20 02:29:10;;;;;;;;;;;;;;;;;;5070058;28;19989;-60
2023/06/20 02:31:36;;;;;;;;;;;;;;;;;;5089143;28;19948;-60
2023/06/20 02:34:02;;;;;;;;;;;;;;;;;;5090687;28;19942;-60
2023/06/20 02:36:28;;;;;;;;;;;;;;;;;;5090084;28;19934;-60
2023/06/20 02:38:54;;;;;;;;;;;;;;;;;;5090744;28;20032;-60
2023/06/20 02:41:20;;;;;;;;;;;;;;;;;;5090738;28;19931;-60
2023/06/20 02:43:46;;;;;;;;;;;;;;;;;;5072254;28;19924;-60
2023/06/20 02:46:12;;;;;;;;;;;;;;;;;;5090358;28;19935;-60
2023/06/20 02:48:38;;;;;;;;;;;;;;;;;;5072589;28;19928;-60
2023/06/20 02:51:04;;;;;;;;;;;;;;;;;;5090466;28;19951;-60
2023/06/20 02:53:30;;;;;;;;;;;;;;;;;;5090002;28;19924;-60
2023/06/20 02:55:58;;;;;;;;;;;;;;;;;;5090247;28;19927;-60
2023/06/20 02:58:24;;;;;;;;;;;;;;;;;;5090586;28;20013;-60
2023/06/20 03:00:50;;;;;;;;;;;;;;;;;;5090200;28;19967;-60
2023/06/20 03:03:16;;;;;;;;;;;;;;;;;;5072059;28;19954;-60
2023/06/20 03:05:42;;;;;;;;;;;;;;;;;;5071895;28;19999;-60
2023/06/20 03:08:08;;;;;;;;;;;;;;;;;;5089892;28;19936;-60
2023/06/20 03:10:34;;;;;;;;;;;;;;;;;;5090348;28;19932;-60
2023/06/20 03:13:00;;;;;;;;;;;;;;;;;;5090277;28;19920;-60
2023/06/20 03:15:27;;;;;;;;;;;;;;;;;;5089900;28;19967;-60
2023/06/20 03:17:53;;;;;;;;;;;;;;;;;;5090435;28;19949;-60
2023/06/20 03:20:20;;;;;;;;;;;;;;;;;;5090363;28;19968;-60
2023/06/20 03:22:45;;;;;;;;;;;;;;;;;;5089611;28;19973;-60
2023/06/20 03:25:11;;;;;;;;;;;;;;;;;;5070094;28;20518;-60
2023/06/20 03:27:38;;;;;;;;;;;;;;;;;;5072794;28;20000;-60
2023/06/20 03:30:04;;;;;;;;;;;;;;;;;;5078998;28;20366;-60
2023/06/20 03:32:30;;;;;;;;;;;;;;;;;;5093883;28;19932;-60
2023/06/20 03:34:56;;;;;;;;;;;;;;;;;;5093758;28;19969;-60
2023/06/20 03:37:22;;;;;;;;;;;;;;;;;;5093181;28;19960;-60
2023/06/20 03:39:49;;;;;;;;;;;;;;;;;;5075454;28;19920;-60
2023/06/20 03:42:15;;;;;;;;;;;;;;;;;;5093739;28;19981;-60
2023/06/20 03:44:41;;;;;;;;;;;;;;;;;;5093387;28;19928;-60
2023/06/20 03:47:07;;;;;;;;;;;;;;;;;;5093883;28;19951;-60
2023/06/20 03:49:33;;;;;;;;;;;;;;;;;;5093922;28;19920;-60
2023/06/20 03:51:59;;;;;;;;;;;;;;;;;;5093462;28;19982;-60
2023/06/20 03:54:25;;;;;;;;;;;;;;;;;;5093807;28;19924;-60
2023/06/20 03:56:51;;;;;;;;;;;;;;;;;;5093695;28;19977;-60
2023/06/20 03:59:18;;;;;;;;;;;;;;;;;;5093481;28;19924;-60
2023/06/20 04:01:44;;;;;;;;;;;;;;;;;;5093821;28;19921;-60
2023/06/20 04:04:10;;;;;;;;;;;;;;;;;;5093668;28;19920;-60
2023/06/20 04:06:36;;;;;;;;;;;;;;;;;;5093295;28;19928;-60
2023/06/20 04:09:03;;;;;;;;;;;;;;;;;;5093671;28;19920;-60
2023/06/20 04:11:29;;;;;;;;;;;;;;;;;;5093772;28;19964;-60
2023/06/20 04:13:55;;;;;;;;;;;;;;;;;;5092972;28;20021;-60
2023/06/20 04:16:21;;;;;;;;;;;;;;;;;;5093599;28;19989;-60
2023/06/20 04:18:47;;;;;;;;;;;;;;;;;;5093469;28;19943;-60
2023/06/20 04:21:16;;;;;;;;;;;;;;;;;;5074895;28;19923;-60
2023/06/20 04:23:42;;;;;;;;;;;;;;;;;;5093335;28;19931;-60
2023/06/20 04:26:08;;;;;;;;;;;;;;;;;;5083774;28;19924;-60
2023/06/20 04:28:34;;;;;;;;;;;;;;;;;;5054327;28;19924;-60
2023/06/20 04:31:00;;;;;;;;;;;;;;;;;;5086610;28;20350;-60
2023/06/20 04:33:26;;;;;;;;;;;;;;;;;;5093084;28;19927;-60
2023/06/20 04:35:54;;;;;;;;;;;;;;;;;;5092487;28;19927;-60
2023/06/20 04:38:20;;;;;;;;;;;;;;;;;;5092722;28;20633;-60
2023/06/20 04:40:46;;;;;;;;;;;;;;;;;;5074825;28;20011;-60
2023/06/20 04:43:12;;;;;;;;;;;;;;;;;;5092414;28;19927;-60
2023/06/20 04:45:38;;;;;;;;;;;;;;;;;;5093091;28;19920;-60
2023/06/20 04:48:04;;;;;;;;;;;;;;;;;;5092808;28;19946;-60
2023/06/20 04:50:30;;;;;;;;;;;;;;;;;;5092249;28;19942;-60
2023/06/20 04:52:56;;;;;;;;;;;;;;;;;;5074367;28;19924;-60
2023/06/20 04:55:22;;;;;;;;;;;;;;;;;;5074478;28;19977;-60
2023/06/20 04:57:48;;;;;;;;;;;;;;;;;;5092234;28;19924;-60
2023/06/20 05:00:15;;;;;;;;;;;;;;;;;;5092616;28;19968;-60
2023/06/20 05:02:44;;;;;;;;;;;;;;;;;;5092462;28;19927;-60
2023/06/20 05:05:10;;;;;;;;;;;;;;;;;;5091850;28;19920;-60
2023/06/20 05:07:36;;;;;;;;;;;;;;;;;;5092441;28;20001;-60
2023/06/20 05:10:02;;;;;;;;;;;;;;;;;;5092449;28;20416;-60
2023/06/20 05:12:28;;;;;;;;;;;;;;;;;;5091687;28;19924;-60
2023/06/20 05:14:54;;;;;;;;;;;;;;;;;;5092225;28;19928;-60
2023/06/20 05:17:20;;;;;;;;;;;;;;;;;;5092332;28;19946;-60
2023/06/20 05:19:45;;;;;;;;;;;;;;;;;;5091772;28;19963;-60
2023/06/20 05:22:11;;;;;;;;;;;;;;;;;;5092105;28;19951;-60
2023/06/20 05:24:37;;;;;;;;;;;;;;;;;;5092033;28;19923;-60
2023/06/20 05:27:03;;;;;;;;;;;;;;;;;;5074064;28;19924;-60
2023/06/20 05:29:29;;;;;;;;;;;;;;;;;;5072858;28;20576;-60
2023/06/20 05:31:55;;;;;;;;;;;;;;;;;;5091946;28;19982;-60
2023/06/20 05:34:21;;;;;;;;;;;;;;;;;;5091270;28;19927;-60
2023/06/20 05:36:47;;;;;;;;;;;;;;;;;;5091754;28;19945;-60
2023/06/20 05:39:13;;;;;;;;;;;;;;;;;;5091370;28;19976;-60
2023/06/20 05:41:41;;;;;;;;;;;;;;;;;;5090878;28;19920;-60
2023/06/20 05:44:07;;;;;;;;;;;;;;;;;;5091443;28;19920;-60
2023/06/20 05:46:33;;;;;;;;;;;;;;;;;;5090288;28;20380;-61
2023/06/20 05:49:00;;;;;;;;;;;;;;;;;;5090325;28;19951;-57
2023/06/20 05:51:27;;;;;;;;;;;;;;;;;;5091140;28;19932;-58
2023/06/20 05:53:57;;;;;;;;;;;;;;;;;;5091395;28;20019;-57
2023/06/20 05:56:23;;;;;;;;;;;;;;;;;;5090367;28;19974;-57
2023/06/20 05:58:49;;;;;;;;;;;;;;;;;;5091273;28;19924;-58
2023/06/20 06:01:15;;;;;;;;;;;;;;;;;;5090944;28;19920;-58
2023/06/20 06:03:40;;;;;;;;;;;;;;;;;;5090530;28;19924;-58
2023/06/20 06:06:09;;;;;;;;;;;;;;;;;;5091075;28;19920;-58
2023/06/20 06:08:35;;;;;;;;;;;;;;;;;;5090983;28;19931;-58
2023/06/20 06:11:01;;;;;;;;;;;;;;;;;;5090464;28;19924;-59
2023/06/20 06:13:28;;;;;;;;;;;;;;;;;;5090633;28;19920;-58
2023/06/20 06:15:54;;;;;;;;;;;;;;;;;;5090806;28;19920;-57
2023/06/20 06:18:20;;;;;;;;;;;;;;;;;;5072718;28;19924;-58
2023/06/20 06:20:46;;;;;;;;;;;;;;;;;;5090255;28;20269;-56
2023/06/20 06:23:11;;;;;;;;;;;;;;;;;;5090715;28;19989;-57
2023/06/20 06:25:37;;;;;;;;;;;;;;;;;;5090523;28;19924;-56
2023/06/20 06:28:03;;;;;;;;;;;;;;;;;;5090170;28;19942;-59
2023/06/20 06:30:32;;;;;;;;;;;;;;;;;;5090636;28;19955;-57
2023/06/20 06:32:58;;;;;;;;;;;;;;;;;;5083173;28;19928;-59
2023/06/20 06:35:24;;;;;;;;;;;;;;;;;;5084330;28;20291;-58
2023/06/20 06:37:52;;;;;;;;;;;;;;;;;;5085418;28;19924;-58
2023/06/20 06:40:20;;;;;;;;;;;;;;;;;;5089948;28;20328;-59
2023/06/20 06:42:46;;;;;;;;;;;;;;;;;;5071517;28;19973;-59
2023/06/20 06:45:12;;;;;;;;;;;;;;;;;;5090005;28;20394;-58
2023/06/20 06:47:38;;;;;;;;;;;;;;;;;;5089766;28;19924;-59
2023/06/20 06:50:04;;;;;;;;;;;;;;;;;;5082976;28;19948;-60
2023/06/20 06:52:30;;;;;;;;;;;;;;;;;;5086459;28;20005;-60
2023/06/20 06:54:56;;;;;;;;;;;;;;;;;;5089376;28;19924;-60
2023/06/20 06:57:22;;;;;;;;;;;;;;;;;;5079092;28;20428;-58
2023/06/20 06:59:48;;;;;;;;;;;;;;;;;;5089432;28;19924;-60
2023/06/20 07:02:13;;;;;;;;;;;;;;;;;;5091867;28;19924;-58
2023/06/20 07:04:39;;;;;;;;;;;;;;;;;;5086904;28;19947;-57
2023/06/20 07:07:05;;;;;;;;;;;;;;;;;;5088733;28;19924;-59
2023/06/20 07:09:31;;;;;;;;;;;;;;;;;;5084660;28;19931;-58
2023/06/20 07:11:57;;;;;;;;;;;;;;;;;;5064690;28;19936;-57
2023/06/20 07:14:23;;;;;;;;;;;;;;;;;;5093248;28;19924;-59
2023/06/20 07:16:49;;;;;;;;;;;;;;;;;;5093420;28;20605;-59
2023/06/20 07:19:15;;;;;;;;;;;;;;;;;;5092541;28;19928;-59
2023/06/20 07:21:41;;;;;;;;;;;;;;;;;;5072976;28;19924;-59
2023/06/20 07:24:07;;;;;;;;;;;;;;;;;;5093460;28;19931;-56
2023/06/20 07:26:33;;;;;;;;;;;;;;;;;;5092324;28;20039;-60
2023/06/20 07:28:59;;;;;;;;;;;;;;;;;;5093780;28;19920;-60
2023/06/20 07:31:25;;;;;;;;;;;;;;;;;;5074211;28;19924;-60
2023/06/20 07:33:51;;;;;;;;;;;;;;;;;;5092441;28;19924;-60
2023/06/20 07:36:17;;;;;;;;;;;;;;;;;;5093081;28;19928;-60
2023/06/20 07:38:43;;;;;;;;;;;;;;;;;;5092959;28;19931;-58
2023/06/20 07:41:09;;;;;;;;;;;;;;;;;;5074374;28;20428;-58
2023/06/20 07:43:35;;;;;;;;;;;;;;;;;;5070117;28;19920;-56
2023/06/20 07:46:00;;;;;;;;;;;;;;;;;;5093414;28;19989;-58
2023/06/20 07:48:29;;;;;;;;;;;;;;;;;;5086271;28;19924;-59
2023/06/20 07:50:55;;;;;;;;;;;;;;;;;;5091829;28;20352;-57
2023/06/20 07:53:21;;;;;;;;;;;;;;;;;;5092771;28;19927;-57
2023/06/20 07:55:47;;;;;;;;;;;;;;;;;;5091288;28;20002;-60
2023/06/20 07:58:13;;;;;;;;;;;;;;;;;;5092811;28;19920;-60
2023/06/20 08:00:40;;;;;;;;;;;;;;;;;;5091862;28;19924;-58
2023/06/20 08:03:06;;;;;;;;;;;;;;;;;;5091606;28;19920;-58
2023/06/20 08:05:32;;;;;;;;;;;;;;;;;;5092729;28;19939;-59
2023/06/20 08:07:58;;;;;;;;;;;;;;;;;;5092294;28;19981;-59
2023/06/20 08:10:24;;;;;;;;;;;;;;;;;;5091698;28;20010;-59
2023/06/20 08:12:50;;;;;;;;;;;;;;;;;;5091323;28;19928;-58
2023/06/20 08:15:16;;;;;;;;;;;;;;;;;;5091778;28;19931;-58
2023/06/20 08:17:42;;;;;;;;;;;;;;;;;;5091895;28;19924;-57
2023/06/20 08:20:11;;;;;;;;;;;;;;;;;;5091502;28;19928;-57
2023/06/20 08:22:37;;;;;;;;;;;;;;;;;;5092031;28;20040;-56
2023/06/20 08:25:03;;;;;;;;;;;;;;;;;;5090821;28;20677;-53
2023/06/20 08:27:29;;;;;;;;;;;;;;;;;;5080028;28;19920;-57
2023/06/20 08:29:55;;;;;;;;;;;;;;;;;;5091764;28;19920;-57
2023/06/20 08:32:21;;;;;;;;;;;;;;;;;;5091259;28;19928;-59
2023/06/20 08:34:50;;;;;;;;;;;;;;;;;;5091691;28;19946;-59
2023/06/20 08:37:16;;;;;;;;;;;;;;;;;;5072209;28;19960;-60
2023/06/20 08:39:42;;;;;;;;;;;;;;;;;;5080406;28;20404;-57
2023/06/20 08:42:08;;;;;;;;;;;;;;;;;;5087126;28;20409;-59
2023/06/20 08:44:34;;;;;;;;;;;;;;;;;;5091357;28;19971;-59
2023/06/20 08:47:00;;;;;;;;;;;;;;;;;;5091131;28;19920;-57
2023/06/20 08:49:26;;;;;;;;;;;;;;;;;;5086438;28;19986;-59
2023/06/20 08:51:52;;;;;;;;;;;;;;;;;;5081851;28;19935;-59
2023/06/20 08:54:20;;;;;;;;;;;;;;;;;;5091087;28;19934;-59
2023/06/20 08:56:46;;;;;;;;;;;;;;;;;;5091035;28;19920;-59
2023/06/20 08:59:12;;;;;;;;;;;;;;;;;;5091131;28;19970;-58
2023/06/20 09:01:38;;;;;;;;;;;;;;;;;;5072823;28;19967;-58
2023/06/20 09:04:05;;;;;;;;;;;;;;;;;;5090753;28;19978;-59
2023/06/20 09:06:31;;;;;;;;;;;;;;;;;;5073000;28;19924;-60
2023/06/20 09:08:56;;;;;;;;;;;;;;;;;;5072785;28;19930;-60
2023/06/20 09:11:22;;;;;;;;;;;;;;;;;;5090952;28;19924;-58
2023/06/20 09:13:48;;;;;;;;;;;;;;;;;;5090803;28;19920;-60
2023/06/20 09:16:14;;;;;;;;;;;;;;;;;;5090013;28;19967;-60
2023/06/20 09:18:40;;;;;;;;;;;;;;;;;;5091257;28;19924;-59
2023/06/20 09:21:06;;;;;;;;;;;;;;;;;;5090266;28;19951;-59
2023/06/20 09:23:32;;;;;;;;;;;;;;;;;;5089409;28;20256;-58
2023/06/20 09:25:58;;;;;;;;;;;;;;;;;;5082856;28;19924;-58
2023/06/20 09:28:24;;;;;;;;;;;;;;;;;;5071823;28;19920;-60
2023/06/20 09:30:50;;;;;;;;;;;;;;;;;;5090069;28;20053;-60
2023/06/20 09:33:17;;;;;;;;;;;;;;;;;;5089806;28;19924;-62
2023/06/20 09:35:43;;;;;;;;;;;;;;;;;;5089760;28;20028;-61
2023/06/20 09:38:09;;;;;;;;;;;;;;;;;;5085769;28;19946;-59
2023/06/20 09:40:35;;;;;;;;;;;;;;;;;;5070931;28;19963;-59
2023/06/20 09:43:01;;;;;;;;;;;;;;;;;;5090221;28;19924;-59
2023/06/20 09:45:27;;;;;;;;;;;;;;;;;;5083995;28;19920;-60
2023/06/20 09:47:53;;;;;;;;;;;;;;;;;;5084135;28;20394;-57
2023/06/20 09:50:19;;;;;;;;;;;;;;;;;;5085496;28;19920;-58
2023/06/20 09:52:45;;;;;;;;;;;;;;;;;;5089706;28;20382;-58
2023/06/20 09:55:11;;;;;;;;;;;;;;;;;;5089006;28;19931;-58
2023/06/20 09:57:37;;;;;;;;;;;;;;;;;;5054419;28;19929;-59
2023/06/20 10:00:12;;;;;;;;;;;;;;;;;;5083333;28;19924;-59
2023/06/20 10:02:38;;;;;;;;;;;;;;;;;;5089257;28;19946;-59
2023/06/20 10:05:04;;;;;;;;;;;;;;;;;;5089411;28;19973;-59
2023/06/20 10:07:30;;;;;;;;;;;;;;;;;;5089277;28;20313;-60
2023/06/20 10:09:56;;;;;;;;;;;;;;;;;;5089075;28;19979;-60
2023/06/20 10:12:22;;;;;;;;;;;;;;;;;;5089415;28;20016;-60
2023/06/20 10:14:48;;;;;;;;;;;;;;;;;;5084205;28;19939;-56
2023/06/20 10:17:15;;;;;;;;;;;;;;;;;;5088678;28;20252;-60
2023/06/20 10:19:41;;;;;;;;;;;;;;;;;;5088791;28;19965;-58
2023/06/20 10:22:06;;;;;;;;;;;;;;;;;;5089739;28;20324;-58
2023/06/20 10:24:32;;;;;;;;;;;;;;;;;;5084353;28;19924;-58
2023/06/20 10:27:03;;;;;;;;;;;;;;;;;;5083669;28;19954;-60
2023/06/20 10:29:29;;;;;;;;;;;;;;;;;;5088483;28;19924;-60
2023/06/20 10:31:55;;;;;;;;;;;;;;;;;;5088296;28;19939;-59
2023/06/20 10:34:21;;;;;;;;;;;;;;;;;;5089152;28;19951;-59
2023/06/20 10:36:47;;;;;;;;;;;;;;;;;;5092673;28;19924;-61
2023/06/20 10:39:13;;;;;;;;;;;;;;;;;;5074052;28;19993;-60
2023/06/20 10:41:39;;;;;;;;;;;;;;;;;;5088260;28;19924;-60
2023/06/20 10:44:07;;;;;;;;;;;;;;;;;;5058253;28;20077;-60
2023/06/20 10:46:33;;;;;;;;;;;;;;;;;;5085165;28;19920;-59
2023/06/20 10:48:59;;;;;;;;;;;;;;;;;;5093544;28;20408;-59
2023/06/20 10:51:26;;;;;;;;;;;;;;;;;;5074979;28;19936;-58
2023/06/20 10:53:52;;;;;;;;;;;;;;;;;;5092691;28;19931;-58
2023/06/20 10:56:17;;;;;;;;;;;;;;;;;;5092941;28;20297;-58
2023/06/20 10:58:43;;;;;;;;;;;;;;;;;;5075120;28;19923;-58
2023/06/20 11:01:09;;;;;;;;;;;;;;;;;;5092634;28;19920;-58
2023/06/20 11:03:35;;;;;;;;;;;;;;;;;;5093209;28;19946;-58
2023/06/20 11:06:01;;;;;;;;;;;;;;;;;;5093507;28;19951;-58
2023/06/20 11:08:27;;;;;;;;;;;;;;;;;;5092747;28;19927;-57
2023/06/20 11:10:53;;;;;;;;;;;;;;;;;;5092969;28;19920;-58
2023/06/20 11:13:19;;;;;;;;;;;;;;;;;;5092574;28;19920;-57
2023/06/20 11:15:45;;;;;;;;;;;;;;;;;;5091953;28;19931;-58
2023/06/20 11:18:11;;;;;;;;;;;;;;;;;;5093363;28;19985;-57
2023/06/20 11:20:39;;;;;;;;;;;;;;;;;;5057243;28;19923;-61
2023/06/20 11:23:05;;;;;;;;;;;;;;;;;;5074547;28;20014;-59
2023/06/20 11:25:31;;;;;;;;;;;;;;;;;;5092771;28;20018;-59
2023/06/20 11:27:57;;;;;;;;;;;;;;;;;;5092626;28;19955;-59
2023/06/20 11:30:23;;;;;;;;;;;;;;;;;;5092470;28;20286;-61
2023/06/20 11:32:49;;;;;;;;;;;;;;;;;;5092346;28;19928;-61
2023/06/20 11:35:15;;;;;;;;;;;;;;;;;;5092561;28;19928;-61
2023/06/20 11:37:42;;;;;;;;;;;;;;;;;;5091724;28;19920;-60
2023/06/20 11:40:09;;;;;;;;;;;;;;;;;;5092303;28;19928;-59
2023/06/20 11:42:35;;;;;;;;;;;;;;;;;;5092651;28;19931;-61
2023/06/20 11:45:01;;;;;;;;;;;;;;;;;;5091668;28;19926;-59
2023/06/20 11:47:27;;;;;;;;;;;;;;;;;;5072842;28;20065;-57
2023/06/20 11:49:56;;;;;;;;;;;;;;;;;;5092149;28;19947;-58
2023/06/20 11:52:24;;;;;;;;;;;;;;;;;;5092031;28;19928;-59
2023/06/20 11:54:51;;;;;;;;;;;;;;;;;;5092353;28;19920;-57
2023/06/20 11:57:17;;;;;;;;;;;;;;;;;;5092370;28;20618;-57
2023/06/20 11:59:44;;;;;;;;;;;;;;;;;;5091376;28;19950;-54
2023/06/20 12:02:10;;;;;;;;;;;;;;;;;;5092444;28;19924;-54
2023/06/20 12:04:42;;;;;;;;;;;;;;;;;;5092122;28;19927;-56
2023/06/20 12:07:08;;;;;;;;;;;;;;;;;;5092056;28;19976;-55
2023/06/20 12:09:34;;;;;;;;;;;;;;;;;;5091869;28;19920;-57
2023/06/20 12:12:00;;;;;;;;;;;;;;;;;;5091969;28;19931;-55
2023/06/20 12:14:26;;;;;;;;;;;;;;;;;;5091741;28;19955;-57
2023/06/20 12:16:52;;;;;;;;;;;;;;;;;;5091855;28;19946;-58
2023/06/20 12:19:19;;;;;;;;;;;;;;;;;;5073632;28;19993;-59
2023/06/20 12:21:45;;;;;;;;;;;;;;;;;;5088248;28;19928;-59
2023/06/20 12:24:11;;;;;;;;;;;;;;;;;;5081387;28;19924;-59
2023/06/20 12:26:37;;;;;;;;;;;;;;;;;;5092043;28;20378;-59
2023/06/20 12:29:03;;;;;;;;;;;;;;;;;;5091328;28;20007;-58
2023/06/20 12:31:30;;;;;;;;;;;;;;;;;;5091721;28;19928;-58
2023/06/20 12:33:57;;;;;;;;;;;;;;;;;;5091354;28;20512;-58
2023/06/20 12:36:23;;;;;;;;;;;;;;;;;;5090928;28;19968;-57
2023/06/20 12:38:49;;;;;;;;;;;;;;;;;;5084367;28;19924;-58
2023/06/20 12:41:15;;;;;;;;;;;;;;;;;;5089926;28;19928;-53
2023/06/20 12:43:41;;;;;;;;;;;;;;;;;;5090990;28;20256;-54
2023/06/20 12:46:07;;;;;;;;;;;;;;;;;;5091675;28;19963;-55
2023/06/20 12:48:33;;;;;;;;;;;;;;;;;;5072901;28;19924;-55
2023/06/20 12:51:03;;;;;;;;;;;;;;;;;;5076314;28;19928;-53
2023/06/20 12:53:29;;;;;;;;;;;;;;;;;;5090616;28;20057;-57
2023/06/20 12:55:55;;;;;;;;;;;;;;;;;;5090643;28;20006;-58
2023/06/20 12:58:21;;;;;;;;;;;;;;;;;;5071098;28;19924;-57
2023/06/20 13:00:51;;;;;;;;;;;;;;;;;;5064848;28;19920;-57
2023/06/20 13:03:17;;;;;;;;;;;;;;;;;;5076593;28;19928;-58
2023/06/20 13:05:43;;;;;;;;;;;;;;;;;;5086678;28;19924;-57
2023/06/20 13:08:10;;;;;;;;;;;;;;;;;;5076862;28;19928;-55
2023/06/20 13:10:36;;;;;;;;;;;;;;;;;;5091397;28;19924;-57
2023/06/20 13:13:02;;;;;;;;;;;;;;;;;;5090080;28;20412;-58
2023/06/20 13:15:32;;;;;;;;;;;;;;;;;;5072365;28;19963;-53
2023/06/20 13:17:58;;;;;;;;;;;;;;;;;;5090376;28;19924;-56
2023/06/20 13:20:24;;;;;;;;;;;;;;;;;;5077113;28;19924;-56
2023/06/20 13:22:50;;;;;;;;;;;;;;;;;;5086556;28;19927;-58
2023/06/20 13:25:16;;;;;;;;;;;;;;;;;;5066825;28;19924;-57
2023/06/20 13:27:42;;;;;;;;;;;;;;;;;;5090007;28;19920;-58
2023/06/20 13:30:07;;;;;;;;;;;;;;;;;;5072134;28;19931;-60
2023/06/20 13:32:33;;;;;;;;;;;;;;;;;;5089827;28;20344;-58
2023/06/20 13:35:02;;;;;;;;;;;;;;;;;;5090397;28;19926;-58
2023/06/20 13:37:28;;;;;;;;;;;;;;;;;;5071717;28;20003;-59
2023/06/20 13:39:54;;;;;;;;;;;;;;;;;;5089916;28;20047;-59
2023/06/20 13:42:20;;;;;;;;;;;;;;;;;;5090534;28;19970;-59
2023/06/20 13:44:46;;;;;;;;;;;;;;;;;;5089608;28;19928;-58
2023/06/20 13:47:12;;;;;;;;;;;;;;;;;;5087568;28;20362;-59
2023/06/20 13:49:38;;;;;;;;;;;;;;;;;;5087751;28;19920;-57
2023/06/20 13:52:04;;;;;;;;;;;;;;;;;;5073193;28;19927;-57
2023/06/20 13:54:30;;;;;;;;;;;;;;;;;;5072168;28;19924;-56
2023/06/20 13:56:56;;;;;;;;;;;;;;;;;;5089706;28;20038;-55
2023/06/20 13:59:23;;;;;;;;;;;;;;;;;;5078198;28;19925;-59
2023/06/20 14:01:50;;;;;;;;;;;;;;;;;;5080800;28;19962;-60
2023/06/20 14:04:16;;;;;;;;;;;;;;;;;;5056940;28;20498;-57
2023/06/20 14:06:42;;;;;;;;;;;;;;;;;;5090251;28;19927;-56
2023/06/20 14:09:08;;;;;;;;;;;;;;;;;;5072284;28;20014;-57
2023/06/20 14:11:34;;;;;;;;;;;;;;;;;;5090287;28;19928;-56
2023/06/20 14:14:00;;;;;;;;;;;;;;;;;;5089648;28;20007;-57
2023/06/20 14:16:26;;;;;;;;;;;;;;;;;;5090002;28;20010;-56
2023/06/20 14:18:52;;;;;;;;;;;;;;;;;;5090525;28;19924;-57
2023/06/20 14:21:18;;;;;;;;;;;;;;;;;;5089863;28;19927;-56
2023/06/20 14:23:45;;;;;;;;;;;;;;;;;;5090178;28;19972;-56
2023/06/20 14:26:11;;;;;;;;;;;;;;;;;;5089883;28;19924;-57
2023/06/20 14:28:37;;;;;;;;;;;;;;;;;;5071445;28;19955;-56
2023/06/20 14:31:03;;;;;;;;;;;;;;;;;;5090230;28;19974;-56
2023/06/20 14:33:29;;;;;;;;;;;;;;;;;;5089918;28;19927;-57
2023/06/20 14:35:54;;;;;;;;;;;;;;;;;;5071135;28;19920;-57
2023/06/20 14:38:20;;;;;;;;;;;;;;;;;;5090273;28;20005;-55
2023/06/20 14:40:46;;;;;;;;;;;;;;;;;;5090419;28;20367;-59
2023/06/20 14:43:13;;;;;;;;;;;;;;;;;;5089837;28;19943;-59
2023/06/20 14:45:40;;;;;;;;;;;;;;;;;;5072285;28;19920;-58
2023/06/20 14:48:06;;;;;;;;;;;;;;;;;;5090506;28;19920;-59
2023/06/20 14:50:32;;;;;;;;;;;;;;;;;;5089772;28;19934;-59
2023/06/20 14:52:57;;;;;;;;;;;;;;;;;;5090077;28;19975;-59
2023/06/20 14:55:23;;;;;;;;;;;;;;;;;;5090132;28;19928;-59
2023/06/20 14:57:49;;;;;;;;;;;;;;;;;;5089952;28;19943;-59
2023/06/20 15:00:16;;;;;;;;;;;;;;;;;;5090465;28;19920;-59
2023/06/20 15:02:42;;;;;;;;;;;;;;;;;;5090212;28;20601;-59
2023/06/20 15:05:08;;;;;;;;;;;;;;;;;;5071799;28;19993;-59
2023/06/20 15:07:34;;;;;;;;;;;;;;;;;;5071974;28;19963;-59
2023/06/20 15:10:00;;;;;;;;;;;;;;;;;;5090212;28;19928;-58
2023/06/20 15:12:26;;;;;;;;;;;;;;;;;;5089749;28;19928;-58
2023/06/20 15:14:52;;;;;;;;;;;;;;;;;;5090111;28;19942;-59
2023/06/20 15:17:18;;;;;;;;;;;;;;;;;;5072007;28;19924;-58
2023/06/20 15:19:45;;;;;;;;;;;;;;;;;;5089726;28;20020;-59
2023/06/20 15:22:11;;;;;;;;;;;;;;;;;;5090828;28;20271;-59
2023/06/20 15:24:37;;;;;;;;;;;;;;;;;;5093790;28;20016;-59
2023/06/20 15:27:03;;;;;;;;;;;;;;;;;;5075983;28;19994;-59
2023/06/20 15:29:28;;;;;;;;;;;;;;;;;;5074307;28;19977;-59
2023/06/20 15:31:54;;;;;;;;;;;;;;;;;;5093696;28;19947;-59
2023/06/20 15:34:20;;;;;;;;;;;;;;;;;;5093235;28;19920;-59
2023/06/20 15:36:46;;;;;;;;;;;;;;;;;;5093833;28;19935;-59
2023/06/20 15:39:12;;;;;;;;;;;;;;;;;;5093731;28;19920;-59
2023/06/20 15:41:38;;;;;;;;;;;;;;;;;;5093278;28;19920;-59
2023/06/20 15:44:04;;;;;;;;;;;;;;;;;;5093553;28;19982;-59
2023/06/20 15:46:30;;;;;;;;;;;;;;;;;;5093303;28;19927;-59
2023/06/20 15:48:56;;;;;;;;;;;;;;;;;;5092861;28;19924;-59
2023/06/20 15:51:22;;;;;;;;;;;;;;;;;;5075105;28;19924;-59
2023/06/20 15:53:48;;;;;;;;;;;;;;;;;;5093269;28;19938;-59
2023/06/20 15:56:14;;;;;;;;;;;;;;;;;;5092792;28;19920;-59
2023/06/20 15:58:42;;;;;;;;;;;;;;;;;;5093242;28;19950;-59
2023/06/20 16:01:08;;;;;;;;;;;;;;;;;;5093423;28;19952;-59
2023/06/20 16:03:34;;;;;;;;;;;;;;;;;;5092327;28;20382;-59
2023/06/20 16:06:00;;;;;;;;;;;;;;;;;;5058291;28;19946;-59
2023/06/20 16:08:26;;;;;;;;;;;;;;;;;;5093219;28;19950;-59
2023/06/20 16:10:52;;;;;;;;;;;;;;;;;;5092605;28;19920;-59
2023/06/20 16:13:18;;;;;;;;;;;;;;;;;;5092954;28;19926;-59
2023/06/20 16:15:44;;;;;;;;;;;;;;;;;;5093061;28;19920;-59
2023/06/20 16:18:10;;;;;;;;;;;;;;;;;;5092153;28;20007;-59
2023/06/20 16:20:37;;;;;;;;;;;;;;;;;;5093014;28;20001;-59
2023/06/20 16:23:03;;;;;;;;;;;;;;;;;;5092485;28;20305;-59
2023/06/20 16:25:29;;;;;;;;;;;;;;;;;;5088252;28;19924;-59
2023/06/20 16:27:54;;;;;;;;;;;;;;;;;;5072215;28;19944;-59
2023/06/20 16:30:20;;;;;;;;;;;;;;;;;;5080133;28;20626;-59
2023/06/20 16:32:46;;;;;;;;;;;;;;;;;;5091628;28;19932;-59
2023/06/20 16:35:12;;;;;;;;;;;;;;;;;;5092600;28;19975;-59
2023/06/20 16:37:38;;;;;;;;;;;;;;;;;;5092549;28;19931;-59